sensor_id;sensor_type;location;lat;lon;timestamp;pressure;altitude;pressure_sealevel;temperature;humidity
42169;BME280;27838;43.858;25.974;2022-11-25T00:01:10;100684.03;;;11.24;55.61
42169;BME280;27838;43.858;25.974;2022-11-25T00:03:38;100676.22;;;11.21;55.84
42169;BME280;27838;43.858;25.974;2022-11-25T00:06:20;100685.78;;;11.22;55.89
42169;BME280;27838;43.858;25.974;2022-11-25T00:08:52;100685.81;;;11.13;56.38
42169;BME280;27838;43.858;25.974;2022-11-25T00:11:19;100684.94;;;11.15;56.30
42169;BME280;27838;43.858;25.974;2022-11-25T00:13:46;100692.78;;;11.19;56.22
42169;BME280;27838;43.858;25.974;2022-11-25T00:16:18;100688.41;;;11.18;56.14
42169;BME280;27838;43.858;25.974;2022-11-25T00:18:53;100686.66;;;11.21;56.11
42169;BME280;27838;43.858;25.974;2022-11-25T00:21:23;100694.47;;;11.20;56.11
42169;BME280;27838;43.858;25.974;2022-11-25T00:23:51;100691.88;;;11.18;56.52
42169;BME280;27838;43.858;25.974;2022-11-25T00:26:19;100698.84;;;11.18;56.33
42169;BME280;27838;43.858;25.974;2022-11-25T00:28:46;100684.94;;;11.15;56.55
42169;BME280;27838;43.858;25.974;2022-11-25T00:31:24;100695.38;;;11.19;56.03
42169;BME280;27838;43.858;25.974;2022-11-25T00:33:52;100697.09;;;11.20;56.43
42169;BME280;27838;43.858;25.974;2022-11-25T00:36:24;100703.16;;;11.25;56.45
42169;BME280;27838;43.858;25.974;2022-11-25T00:38:58;100696.22;;;11.25;55.96
42169;BME280;27838;43.858;25.974;2022-11-25T00:41:26;100701.41;;;11.27;56.35
42169;BME280;27838;43.858;25.974;2022-11-25T00:44:13;100696.22;;;11.22;56.35
42169;BME280;27838;43.858;25.974;2022-11-25T00:46:57;100697.09;;;11.23;56.50
42169;BME280;27838;43.858;25.974;2022-11-25T00:49:24;100697.09;;;11.26;56.58
42169;BME280;27838;43.858;25.974;2022-11-25T00:51:50;100696.19;;;11.28;56.29
42169;BME280;27838;43.858;25.974;2022-11-25T00:54:17;100691.88;;;11.26;56.58
42169;BME280;27838;43.858;25.974;2022-11-25T00:56:44;100697.09;;;11.20;56.64
42169;BME280;27838;43.858;25.974;2022-11-25T00:59:10;100698.84;;;11.18;56.90
42169;BME280;27838;43.858;25.974;2022-11-25T01:01:37;100711.03;;;11.19;57.18
42169;BME280;27838;43.858;25.974;2022-11-25T01:04:04;100713.59;;;11.22;56.65
42169;BME280;27838;43.858;25.974;2022-11-25T01:06:32;100704.03;;;11.27;56.54
42169;BME280;27838;43.858;25.974;2022-11-25T01:08:59;100713.59;;;11.25;56.53
42169;BME280;27838;43.858;25.974;2022-11-25T01:11:25;100715.34;;;11.23;56.82
42169;BME280;27838;43.858;25.974;2022-11-25T01:13:54;100714.47;;;11.27;56.80
42169;BME280;27838;43.858;25.974;2022-11-25T01:16:21;100710.13;;;11.26;56.81
42169;BME280;27838;43.858;25.974;2022-11-25T01:18:48;100720.56;;;11.27;56.58
42169;BME280;27838;43.858;25.974;2022-11-25T01:21:21;100720.56;;;11.29;56.79
42169;BME280;27838;43.858;25.974;2022-11-25T01:23:48;100724.03;;;11.26;57.01
42169;BME280;27838;43.858;25.974;2022-11-25T01:26:21;100713.59;;;11.26;56.57
42169;BME280;27838;43.858;25.974;2022-11-25T01:28:48;100719.69;;;11.27;56.89
42169;BME280;27838;43.858;25.974;2022-11-25T01:31:21;100723.19;;;11.21;56.60
42169;BME280;27838;43.858;25.974;2022-11-25T01:33:55;100721.44;;;11.22;56.76
42169;BME280;27838;43.858;25.974;2022-11-25T01:36:23;100721.47;;;11.20;57.08
42169;BME280;27838;43.858;25.974;2022-11-25T01:38:52;100717.97;;;11.23;56.86
42169;BME280;27838;43.858;25.974;2022-11-25T01:41:21;100715.34;;;11.20;56.75
42169;BME280;27838;43.858;25.974;2022-11-25T01:44:20;100717.97;;;11.20;56.90
42169;BME280;27838;43.858;25.974;2022-11-25T01:52:05;100717.09;;;11.16;56.86
42169;BME280;27838;43.858;25.974;2022-11-25T01:54:39;100714.50;;;11.16;56.71
42169;BME280;27838;43.858;25.974;2022-11-25T01:57:12;100714.50;;;11.14;56.88
42169;BME280;27838;43.858;25.974;2022-11-25T01:59:45;100713.63;;;11.12;57.12
42169;BME280;27838;43.858;25.974;2022-11-25T02:02:13;100711.06;;;11.03;57.29
42169;BME280;27838;43.858;25.974;2022-11-25T02:04:42;100729.28;;;11.09;57.36
42169;BME280;27838;43.858;25.974;2022-11-25T02:07:19;100721.50;;;11.05;57.27
42169;BME280;27838;43.858;25.974;2022-11-25T02:09:48;100722.34;;;11.02;57.40
42169;BME280;27838;43.858;25.974;2022-11-25T02:12:16;100731.94;;;11.00;57.43
42169;BME280;27838;43.858;25.974;2022-11-25T02:14:45;100731.06;;;11.00;57.70
42169;BME280;27838;43.858;25.974;2022-11-25T02:17:12;100721.50;;;10.97;57.47
42169;BME280;27838;43.858;25.974;2022-11-25T02:19:55;100726.69;;;10.97;57.77
42169;BME280;27838;43.858;25.974;2022-11-25T02:25:30;100733.66;;;10.98;57.77
42169;BME280;27838;43.858;25.974;2022-11-25T02:28:00;100728.44;;;10.95;57.87
42169;BME280;27838;43.858;25.974;2022-11-25T02:30:28;100731.94;;;10.94;58.00
42169;BME280;27838;43.858;25.974;2022-11-25T02:32:57;100731.06;;;10.84;58.25
42169;BME280;27838;43.858;25.974;2022-11-25T02:35:39;100741.50;;;10.86;58.26
42169;BME280;27838;43.858;25.974;2022-11-25T02:41:19;100738.91;;;10.83;58.85
42169;BME280;27838;43.858;25.974;2022-11-25T02:43:46;100740.66;;;10.84;58.84
42169;BME280;27838;43.858;25.974;2022-11-25T02:46:16;100749.31;;;10.83;58.91
42169;BME280;27838;43.858;25.974;2022-11-25T02:48:43;100748.47;;;10.85;58.78
42169;BME280;27838;43.858;25.974;2022-11-25T02:51:12;100754.56;;;10.89;58.90
42169;BME280;27838;43.858;25.974;2022-11-25T02:53:39;100751.06;;;10.93;58.83
42169;BME280;27838;43.858;25.974;2022-11-25T02:56:07;100757.16;;;11.00;58.54
42169;BME280;27838;43.858;25.974;2022-11-25T02:58:34;100749.31;;;10.98;58.51
42169;BME280;27838;43.858;25.974;2022-11-25T03:01:00;100762.38;;;11.03;58.53
42169;BME280;27838;43.858;25.974;2022-11-25T03:03:27;100758.00;;;11.00;58.82
42169;BME280;27838;43.858;25.974;2022-11-25T03:05:53;100759.75;;;11.01;59.01
42169;BME280;27838;43.858;25.974;2022-11-25T03:08:20;100762.38;;;11.00;58.90
42169;BME280;27838;43.858;25.974;2022-11-25T03:10:47;100766.72;;;10.98;59.00
42169;BME280;27838;43.858;25.974;2022-11-25T03:13:13;100761.50;;;10.93;59.31
42169;BME280;27838;43.858;25.974;2022-11-25T03:15:40;100767.59;;;10.90;59.47
42169;BME280;27838;43.858;25.974;2022-11-25T03:18:06;100770.16;;;10.92;59.58
42169;BME280;27838;43.858;25.974;2022-11-25T03:20:34;100776.28;;;10.92;59.65
42169;BME280;27838;43.858;25.974;2022-11-25T03:23:02;100784.97;;;10.98;59.39
42169;BME280;27838;43.858;25.974;2022-11-25T03:25:29;100780.63;;;11.01;59.49
42169;BME280;27838;43.858;25.974;2022-11-25T03:27:56;100784.94;;;11.01;59.61
42169;BME280;27838;43.858;25.974;2022-11-25T03:30:24;100773.66;;;11.00;59.54
42169;BME280;27838;43.858;25.974;2022-11-25T03:32:51;100784.09;;;11.08;59.51
42169;BME280;27838;43.858;25.974;2022-11-25T03:35:17;100789.28;;;11.12;59.33
42169;BME280;27838;43.858;25.974;2022-11-25T03:37:44;100794.50;;;11.15;59.18
42169;BME280;27838;43.858;25.974;2022-11-25T03:40:13;100796.25;;;11.13;59.43
42169;BME280;27838;43.858;25.974;2022-11-25T03:42:40;100792.75;;;11.14;59.63
42169;BME280;27838;43.858;25.974;2022-11-25T03:45:09;100792.75;;;11.14;59.27
42169;BME280;27838;43.858;25.974;2022-11-25T03:47:37;100793.66;;;11.17;59.31
42169;BME280;27838;43.858;25.974;2022-11-25T03:50:04;100797.97;;;11.19;59.46
42169;BME280;27838;43.858;25.974;2022-11-25T03:52:31;100798.84;;;11.23;59.17
42169;BME280;27838;43.858;25.974;2022-11-25T03:54:57;100793.63;;;11.23;59.33
42169;BME280;27838;43.858;25.974;2022-11-25T03:57:24;100794.50;;;11.25;59.29
42169;BME280;27838;43.858;25.974;2022-11-25T03:59:50;100797.09;;;11.25;58.78
42169;BME280;27838;43.858;25.974;2022-11-25T04:02:17;100803.22;;;11.24;59.13
42169;BME280;27838;43.858;25.974;2022-11-25T04:04:43;100800.59;;;11.22;59.24
42169;BME280;27838;43.858;25.974;2022-11-25T04:07:10;100804.91;;;11.23;59.27
42169;BME280;27838;43.858;25.974;2022-11-25T04:09:37;100810.13;;;11.25;59.16
42169;BME280;27838;43.858;25.974;2022-11-25T04:12:03;100808.41;;;11.27;59.11
42169;BME280;27838;43.858;25.974;2022-11-25T04:14:47;100811.91;;;11.26;59.44
42169;BME280;27838;43.858;25.974;2022-11-25T04:17:14;100823.19;;;11.31;59.22
42169;BME280;27838;43.858;25.974;2022-11-25T04:19:41;100816.22;;;11.28;59.51
42169;BME280;27838;43.858;25.974;2022-11-25T04:22:07;100823.19;;;11.31;59.16
42169;BME280;27838;43.858;25.974;2022-11-25T04:24:34;100824.06;;;11.33;59.11
42169;BME280;27838;43.858;25.974;2022-11-25T04:27:01;100823.19;;;11.34;59.06
42169;BME280;27838;43.858;25.974;2022-11-25T04:29:27;100827.53;;;11.35;59.01
42169;BME280;27838;43.858;25.974;2022-11-25T04:31:54;100828.41;;;11.34;59.01
42169;BME280;27838;43.858;25.974;2022-11-25T04:34:20;100824.94;;;11.29;59.04
42169;BME280;27838;43.858;25.974;2022-11-25T04:36:47;100845.81;;;11.29;59.55
42169;BME280;27838;43.858;25.974;2022-11-25T04:39:13;100855.38;;;11.27;59.47
42169;BME280;27838;43.858;25.974;2022-11-25T04:41:40;100845.81;;;11.26;59.54
42169;BME280;27838;43.858;25.974;2022-11-25T04:44:07;100852.75;;;11.27;59.50
42169;BME280;27838;43.858;25.974;2022-11-25T04:46:37;100848.41;;;11.32;59.24
42169;BME280;27838;43.858;25.974;2022-11-25T04:49:05;100856.25;;;11.29;59.23
42169;BME280;27838;43.858;25.974;2022-11-25T04:51:32;100851.88;;;11.25;59.22
42169;BME280;27838;43.858;25.974;2022-11-25T04:53:59;100857.97;;;11.31;59.16
42169;BME280;27838;43.858;25.974;2022-11-25T04:56:26;100853.63;;;11.32;59.24
42169;BME280;27838;43.858;25.974;2022-11-25T04:58:52;100859.72;;;11.26;59.55
42169;BME280;27838;43.858;25.974;2022-11-25T05:01:37;100867.56;;;11.20;59.56
42169;BME280;27838;43.858;25.974;2022-11-25T05:04:03;100859.75;;;11.20;59.68
42169;BME280;27838;43.858;25.974;2022-11-25T05:06:30;100865.81;;;11.25;59.70
42169;BME280;27838;43.858;25.974;2022-11-25T05:08:56;100869.28;;;11.24;59.64
42169;BME280;27838;43.858;25.974;2022-11-25T05:11:23;100877.97;;;11.25;59.78
42169;BME280;27838;43.858;25.974;2022-11-25T05:13:49;100872.75;;;11.22;59.78
42169;BME280;27838;43.858;25.974;2022-11-25T05:16:16;100879.72;;;11.24;59.59
42169;BME280;27838;43.858;25.974;2022-11-25T05:18:42;100887.56;;;11.26;59.79
42169;BME280;27838;43.858;25.974;2022-11-25T05:21:09;100893.66;;;11.28;59.74
42169;BME280;27838;43.858;25.974;2022-11-25T05:23:35;100901.47;;;11.26;59.90
42169;BME280;27838;43.858;25.974;2022-11-25T05:26:03;100904.06;;;11.22;59.91
42169;BME280;27838;43.858;25.974;2022-11-25T05:28:30;100914.50;;;11.26;59.86
42169;BME280;27838;43.858;25.974;2022-11-25T05:30:57;100913.66;;;11.21;59.75
42169;BME280;27838;43.858;25.974;2022-11-25T05:33:23;100913.66;;;11.13;59.56
42169;BME280;27838;43.858;25.974;2022-11-25T05:35:58;100924.94;;;11.09;59.82
42169;BME280;27838;43.858;25.974;2022-11-25T05:38:25;100932.78;;;11.06;60.21
42169;BME280;27838;43.858;25.974;2022-11-25T05:40:52;100928.41;;;11.05;60.17
42169;BME280;27838;43.858;25.974;2022-11-25T05:43:19;100924.94;;;11.03;59.98
42169;BME280;27838;43.858;25.974;2022-11-25T05:45:45;100928.44;;;11.08;60.28
42169;BME280;27838;43.858;25.974;2022-11-25T05:48:12;100941.47;;;11.08;60.18
42169;BME280;27838;43.858;25.974;2022-11-25T05:50:39;100942.31;;;11.07;60.08
42169;BME280;27838;43.858;25.974;2022-11-25T05:53:06;100950.16;;;11.07;59.89
42169;BME280;27838;43.858;25.974;2022-11-25T05:55:33;100947.53;;;11.04;59.85
42169;BME280;27838;43.858;25.974;2022-11-25T05:57:59;100953.63;;;11.05;59.90
42169;BME280;27838;43.858;25.974;2022-11-25T06:00:27;100953.63;;;11.00;59.69
42169;BME280;27838;43.858;25.974;2022-11-25T06:02:54;100961.47;;;11.03;59.89
42169;BME280;27838;43.858;25.974;2022-11-25T06:05:21;100963.19;;;11.04;59.73
42169;BME280;27838;43.858;25.974;2022-11-25T06:07:48;100967.56;;;11.08;59.82
42169;BME280;27838;43.858;25.974;2022-11-25T06:10:16;100979.72;;;11.11;59.79
42169;BME280;27838;43.858;25.974;2022-11-25T06:12:42;100980.63;;;11.11;59.66
42169;BME280;27838;43.858;25.974;2022-11-25T06:15:09;100981.47;;;11.10;59.52
42169;BME280;27838;43.858;25.974;2022-11-25T06:17:36;100990.19;;;11.19;59.72
42169;BME280;27838;43.858;25.974;2022-11-25T06:20:06;100997.16;;;11.17;59.44
42169;BME280;27838;43.858;25.974;2022-11-25T06:22:33;100994.50;;;11.18;59.09
42169;BME280;27838;43.858;25.974;2022-11-25T06:24:59;100998.00;;;11.22;59.46
42169;BME280;27838;43.858;25.974;2022-11-25T06:27:26;100996.28;;;11.24;59.35
42169;BME280;27838;43.858;25.974;2022-11-25T06:29:52;101004.97;;;11.23;59.36
42169;BME280;27838;43.858;25.974;2022-11-25T06:32:19;101003.22;;;11.22;58.96
42169;BME280;27838;43.858;25.974;2022-11-25T06:34:45;101012.81;;;11.24;59.15
42169;BME280;27838;43.858;25.974;2022-11-25T06:37:12;101007.59;;;11.29;59.28
42169;BME280;27838;43.858;25.974;2022-11-25T06:39:38;101002.34;;;11.30;58.71
42169;BME280;27838;43.858;25.974;2022-11-25T06:42:05;101008.47;;;11.37;58.78
42169;BME280;27838;43.858;25.974;2022-11-25T06:44:31;100998.88;;;11.39;58.75
42169;BME280;27838;43.858;25.974;2022-11-25T06:46:58;101004.13;;;11.42;58.69
42169;BME280;27838;43.858;25.974;2022-11-25T06:49:24;101001.53;;;11.45;58.47
42169;BME280;27838;43.858;25.974;2022-11-25T06:51:52;101008.47;;;11.43;58.02
42169;BME280;27838;43.858;25.974;2022-11-25T06:54:19;101003.25;;;11.43;58.56
42169;BME280;27838;43.858;25.974;2022-11-25T06:56:46;101011.09;;;11.46;58.24
42169;BME280;27838;43.858;25.974;2022-11-25T06:59:17;101011.97;;;11.44;58.05
42169;BME280;27838;43.858;25.974;2022-11-25T07:01:43;101020.66;;;11.44;57.69
42169;BME280;27838;43.858;25.974;2022-11-25T07:04:10;101019.78;;;11.44;58.10
42169;BME280;27838;43.858;25.974;2022-11-25T07:06:36;101019.78;;;11.41;57.88
42169;BME280;27838;43.858;25.974;2022-11-25T07:09:03;101023.25;;;11.38;58.22
42169;BME280;27838;43.858;25.974;2022-11-25T07:11:32;101036.31;;;11.38;58.32
42169;BME280;27838;43.858;25.974;2022-11-25T07:14:04;101040.66;;;11.36;57.62
42169;BME280;27838;43.858;25.974;2022-11-25T07:16:32;101048.47;;;11.30;57.99
42169;BME280;27838;43.858;25.974;2022-11-25T07:19:00;101045.00;;;11.28;57.78
42169;BME280;27838;43.858;25.974;2022-11-25T07:21:28;101051.94;;;11.32;57.52
42169;BME280;27838;43.858;25.974;2022-11-25T07:23:57;101047.63;;;11.32;57.64
42169;BME280;27838;43.858;25.974;2022-11-25T07:26:27;101050.22;;;11.31;57.71
42169;BME280;27838;43.858;25.974;2022-11-25T07:28:57;101055.44;;;11.28;57.51
42169;BME280;27838;43.858;25.974;2022-11-25T07:31:26;101056.31;;;11.33;57.42
42169;BME280;27838;43.858;25.974;2022-11-25T07:33:55;101059.81;;;11.40;57.49
42169;BME280;27838;43.858;25.974;2022-11-25T07:36:23;101047.59;;;11.37;57.51
42169;BME280;27838;43.858;25.974;2022-11-25T07:38:50;101072.88;;;11.41;57.12
42169;BME280;27838;43.858;25.974;2022-11-25T07:41:19;101074.59;;;11.42;57.18
42169;BME280;27838;43.858;25.974;2022-11-25T07:43:47;101076.34;;;11.40;56.83
42169;BME280;27838;43.858;25.974;2022-11-25T07:46:26;101078.06;;;11.37;56.73
42169;BME280;27838;43.858;25.974;2022-11-25T07:48:56;101079.81;;;11.36;57.29
42169;BME280;27838;43.858;25.974;2022-11-25T07:51:33;101085.03;;;11.38;57.39
42169;BME280;27838;43.858;25.974;2022-11-25T07:54:03;101078.09;;;11.41;57.62
42169;BME280;27838;43.858;25.974;2022-11-25T07:56:30;101090.28;;;11.45;57.35
42169;BME280;27838;43.858;25.974;2022-11-25T07:58:56;101086.81;;;11.46;57.19
42169;BME280;27838;43.858;25.974;2022-11-25T08:01:23;101082.44;;;11.48;57.07
42169;BME280;27838;43.858;25.974;2022-11-25T08:03:50;101092.00;;;11.52;57.16
42169;BME280;27838;43.858;25.974;2022-11-25T08:06:20;101092.88;;;11.53;57.14
42169;BME280;27838;43.858;25.974;2022-11-25T08:08:48;101097.25;;;11.56;56.93
42169;BME280;27838;43.858;25.974;2022-11-25T08:11:17;101098.97;;;11.57;57.05
42169;BME280;27838;43.858;25.974;2022-11-25T08:13:44;101111.19;;;11.58;57.11
42169;BME280;27838;43.858;25.974;2022-11-25T08:16:13;101103.34;;;11.50;57.14
42169;BME280;27838;43.858;25.974;2022-11-25T08:18:40;101112.03;;;11.53;57.23
42169;BME280;27838;43.858;25.974;2022-11-25T08:21:08;101108.59;;;11.62;57.43
42169;BME280;27838;43.858;25.974;2022-11-25T08:23:36;101113.81;;;11.68;57.14
42169;BME280;27838;43.858;25.974;2022-11-25T08:26:08;101123.38;;;11.74;57.33
42169;BME280;27838;43.858;25.974;2022-11-25T08:28:36;101114.69;;;11.75;57.01
42169;BME280;27838;43.858;25.974;2022-11-25T08:31:06;101119.91;;;11.78;56.82
42169;BME280;27838;43.858;25.974;2022-11-25T08:33:32;101114.69;;;11.75;56.90
42169;BME280;27838;43.858;25.974;2022-11-25T08:35:59;101125.16;;;11.78;57.04
42169;BME280;27838;43.858;25.974;2022-11-25T08:38:26;101119.91;;;11.78;56.72
42169;BME280;27838;43.858;25.974;2022-11-25T08:40:53;101126.88;;;11.79;56.57
42169;BME280;27838;43.858;25.974;2022-11-25T08:43:20;101129.50;;;11.76;57.41
42169;BME280;27838;43.858;25.974;2022-11-25T08:45:48;101131.22;;;11.77;57.61
42169;BME280;27838;43.858;25.974;2022-11-25T08:48:16;101139.09;;;11.83;57.25
42169;BME280;27838;43.858;25.974;2022-11-25T08:50:48;101132.97;;;11.84;56.93
42169;BME280;27838;43.858;25.974;2022-11-25T08:53:16;101139.97;;;11.87;57.10
42169;BME280;27838;43.858;25.974;2022-11-25T08:55:43;101136.47;;;11.86;56.73
42169;BME280;27838;43.858;25.974;2022-11-25T08:58:10;101140.88;;;11.90;56.68
42169;BME280;27838;43.858;25.974;2022-11-25T09:00:39;101143.44;;;11.89;56.65
42169;BME280;27838;43.858;25.974;2022-11-25T09:03:06;101138.22;;;11.87;56.82
42169;BME280;27838;43.858;25.974;2022-11-25T09:05:33;101135.59;;;11.87;56.27
42169;BME280;27838;43.858;25.974;2022-11-25T09:08:04;101140.88;;;11.90;56.35
42169;BME280;27838;43.858;25.974;2022-11-25T09:10:32;101136.50;;;11.93;56.02
42169;BME280;27838;43.858;25.974;2022-11-25T09:12:59;101135.63;;;12.00;56.32
42169;BME280;27838;43.858;25.974;2022-11-25T09:15:25;101134.78;;;11.98;55.53
42169;BME280;27838;43.858;25.974;2022-11-25T09:17:59;101139.13;;;12.05;55.62
42169;BME280;27838;43.858;25.974;2022-11-25T09:20:27;101149.59;;;12.08;55.40
42169;BME280;27838;43.858;25.974;2022-11-25T09:22:54;101136.53;;;12.11;55.19
42169;BME280;27838;43.858;25.974;2022-11-25T09:25:21;101134.75;;;12.18;55.17
42169;BME280;27838;43.858;25.974;2022-11-25T09:27:48;101133.06;;;12.21;55.31
42169;BME280;27838;43.858;25.974;2022-11-25T09:30:15;101130.41;;;12.23;55.03
42169;BME280;27838;43.858;25.974;2022-11-25T09:32:42;101139.13;;;12.28;54.92
42169;BME280;27838;43.858;25.974;2022-11-25T09:35:08;101143.47;;;12.24;54.72
42169;BME280;27838;43.858;25.974;2022-11-25T09:37:35;101133.91;;;12.17;54.42
42169;BME280;27838;43.858;25.974;2022-11-25T09:40:02;101136.50;;;12.16;54.63
42169;BME280;27838;43.858;25.974;2022-11-25T09:42:57;101146.97;;;12.06;55.14
42169;BME280;27838;43.858;25.974;2022-11-25T09:45:55;101144.34;;;12.05;55.76
42169;BME280;27838;43.858;25.974;2022-11-25T09:49:05;101153.94;;;12.11;55.68
42169;BME280;27838;43.858;25.974;2022-11-25T09:54:58;101147.84;;;12.12;55.96
42169;BME280;27838;43.858;25.974;2022-11-25T09:57:24;101146.09;;;12.17;55.88
42169;BME280;27838;43.858;25.974;2022-11-25T10:02:37;101133.91;;;12.28;55.88
42169;BME280;27838;43.858;25.974;2022-11-25T10:07:44;101135.63;;;12.49;55.90
42169;BME280;27838;43.858;25.974;2022-11-25T10:10:24;101133.91;;;12.51;55.92
42169;BME280;27838;43.858;25.974;2022-11-25T10:12:56;101135.63;;;12.55;56.08
42169;BME280;27838;43.858;25.974;2022-11-25T10:15:31;101139.09;;;12.60;56.07
42169;BME280;27838;43.858;25.974;2022-11-25T10:18:03;101139.97;;;12.62;55.83
42169;BME280;27838;43.858;25.974;2022-11-25T10:20:37;101139.06;;;12.66;55.55
42169;BME280;27838;43.858;25.974;2022-11-25T10:23:16;101134.66;;;12.82;55.99
42169;BME280;27838;43.858;25.974;2022-11-25T10:25:47;101128.50;;;13.07;55.75
42169;BME280;27838;43.858;25.974;2022-11-25T10:28:18;101131.91;;;13.27;55.61
42169;BME280;27838;43.858;25.974;2022-11-25T10:33:23;101129.03;;;13.79;53.29
42169;BME280;27838;43.858;25.974;2022-11-25T10:41:43;101134.84;;;14.19;52.38
42169;BME280;27838;43.858;25.974;2022-11-25T10:44:25;101132.91;;;14.38;50.88
42169;BME280;27838;43.858;25.974;2022-11-25T10:52:27;101134.06;;;14.06;51.79
42169;BME280;27838;43.858;25.974;2022-11-25T10:57:34;101131.44;;;14.07;51.63
42169;BME280;27838;43.858;25.974;2022-11-25T11:00:03;101137.53;;;14.08;51.57
42169;BME280;27838;43.858;25.974;2022-11-25T11:07:38;101136.84;;;13.86;52.32
42169;BME280;27838;43.858;25.974;2022-11-25T11:13:03;101130.59;;;14.05;52.73
42169;BME280;27838;43.858;25.974;2022-11-25T11:15:51;101131.31;;;14.23;51.17
42169;BME280;27838;43.858;25.974;2022-11-25T11:18:47;101117.38;;;14.19;50.50
42169;BME280;27838;43.858;25.974;2022-11-25T11:21:28;101131.22;;;14.32;50.90
42169;BME280;27838;43.858;25.974;2022-11-25T11:23:55;101126.00;;;14.32;50.09
42169;BME280;27838;43.858;25.974;2022-11-25T11:26:35;101121.47;;;14.48;49.99
42169;BME280;27838;43.858;25.974;2022-11-25T11:29:12;101125.72;;;14.63;49.32
42169;BME280;27838;43.858;25.974;2022-11-25T11:32:06;101116.97;;;14.61;49.27
42169;BME280;27838;43.858;25.974;2022-11-25T11:34:48;101129.09;;;14.76;48.99
42169;BME280;27838;43.858;25.974;2022-11-25T11:46:23;101129.06;;;14.77;48.85
42169;BME280;27838;43.858;25.974;2022-11-25T11:49:13;101132.63;;;14.73;48.67
42169;BME280;27838;43.858;25.974;2022-11-25T11:54:53;101133.72;;;14.49;49.38
42169;BME280;27838;43.858;25.974;2022-11-25T11:57:34;101138.09;;;14.47;49.74
42169;BME280;27838;43.858;25.974;2022-11-25T12:00:08;101141.69;;;14.35;50.01
42169;BME280;27838;43.858;25.974;2022-11-25T12:02:59;101135.66;;;14.24;49.71
42169;BME280;27838;43.858;25.974;2022-11-25T12:05:32;101138.38;;;14.14;50.26
42169;BME280;27838;43.858;25.974;2022-11-25T12:08:21;101141.03;;;14.08;50.65
42169;BME280;27838;43.858;25.974;2022-11-25T12:10:53;101143.72;;;14.04;50.75
42169;BME280;27838;43.858;25.974;2022-11-25T12:16:18;101136.81;;;13.90;50.75
42169;BME280;27838;43.858;25.974;2022-11-25T12:19:02;101143.81;;;13.90;50.66
42169;BME280;27838;43.858;25.974;2022-11-25T12:27:13;101149.13;;;13.77;51.98
42169;BME280;27838;43.858;25.974;2022-11-25T12:30:00;101149.13;;;13.77;52.03
42169;BME280;27838;43.858;25.974;2022-11-25T12:38:01;101146.38;;;13.96;51.59
42169;BME280;27838;43.858;25.974;2022-11-25T12:46:32;101148.97;;;13.96;51.42
42169;BME280;27838;43.858;25.974;2022-11-25T12:48:59;101154.22;;;13.97;51.94
42169;BME280;27838;43.858;25.974;2022-11-25T12:52:40;101142.03;;;13.90;51.94
42169;BME280;27838;43.858;25.974;2022-11-25T12:55:09;101151.66;;;13.90;52.11
42169;BME280;27838;43.858;25.974;2022-11-25T13:14:24;101153.47;;;13.82;53.22
42169;BME280;27838;43.858;25.974;2022-11-25T13:16:53;101153.44;;;13.83;53.00
42169;BME280;27838;43.858;25.974;2022-11-25T13:19:21;101153.44;;;13.89;53.42
42169;BME280;27838;43.858;25.974;2022-11-25T13:24:33;101149.09;;;13.82;53.73
42169;BME280;27838;43.858;25.974;2022-11-25T13:27:03;101155.16;;;13.89;54.38
42169;BME280;27838;43.858;25.974;2022-11-25T13:32:01;101163.00;;;13.89;54.11
42169;BME280;27838;43.858;25.974;2022-11-25T13:34:31;101167.41;;;13.85;54.36
42169;BME280;27838;43.858;25.974;2022-11-25T13:39:48;101167.47;;;13.73;54.78
42169;BME280;27838;43.858;25.974;2022-11-25T13:42:22;101178.88;;;13.70;54.65
42169;BME280;27838;43.858;25.974;2022-11-25T13:44:57;101174.50;;;13.69;54.69
42169;BME280;27838;43.858;25.974;2022-11-25T13:49:56;101184.97;;;13.66;55.03
42169;BME280;27838;43.858;25.974;2022-11-25T13:52:31;101188.50;;;13.65;54.45
42169;BME280;27838;43.858;25.974;2022-11-25T13:55:09;101188.50;;;13.64;54.67
42169;BME280;27838;43.858;25.974;2022-11-25T13:57:48;101191.97;;;13.64;54.48
42169;BME280;27838;43.858;25.974;2022-11-25T14:07:07;101199.84;;;13.63;54.77
42169;BME280;27838;43.858;25.974;2022-11-25T14:09:04;101195.50;;;13.65;54.50
42169;BME280;27838;43.858;25.974;2022-11-25T14:11:57;101200.72;;;13.63;54.52
42169;BME280;27838;43.858;25.974;2022-11-25T14:20:34;101216.53;;;13.41;55.26
42169;BME280;27838;43.858;25.974;2022-11-25T14:23:40;101217.41;;;13.40;55.54
42169;BME280;27838;43.858;25.974;2022-11-25T14:26:12;101211.28;;;13.45;55.75
42169;BME280;27838;43.858;25.974;2022-11-25T14:29:18;101211.28;;;13.51;55.50
42169;BME280;27838;43.858;25.974;2022-11-25T14:31:40;101216.50;;;13.51;55.26
42169;BME280;27838;43.858;25.974;2022-11-25T14:34:15;101216.50;;;13.48;55.46
42169;BME280;27838;43.858;25.974;2022-11-25T14:36:59;101214.75;;;13.47;55.57
42169;BME280;27838;43.858;25.974;2022-11-25T14:39:35;101220.00;;;13.50;55.21
42169;BME280;27838;43.858;25.974;2022-11-25T14:42:05;101219.13;;;13.51;54.95
42169;BME280;27838;43.858;25.974;2022-11-25T14:44:53;101225.22;;;13.53;54.90
42169;BME280;27838;43.858;25.974;2022-11-25T14:47:27;101224.31;;;13.52;55.00
42169;BME280;27838;43.858;25.974;2022-11-25T14:49:55;101224.31;;;13.55;54.88
42169;BME280;27838;43.858;25.974;2022-11-25T14:52:32;101219.06;;;13.58;54.80
42169;BME280;27838;43.858;25.974;2022-11-25T14:55:01;101230.41;;;13.59;54.92